Time;durP1;ratioP1;P1;durP2;ratioP2;P2;SDS_P1;SDS_P2;PMS_P1;PMS_P2;Temp;Humidity;BMP_temperature;BMP_pressure;BME280_temperature;BME280_humidity;BME280_pressure;Samples;Min_cycle;Max_cycle;Signal;HPM_P1;HPM_P2
2022/01/11 00:00:10;;;;;;;30.35;21.05;;;3.60;99.90;;;;;;5019288;28;20203;-85
2022/01/11 00:03:07;;;;;;;35.15;23.13;;;3.50;99.90;;;;;;5020738;28;20211;-86
2022/01/11 00:05:46;;;;;;;28.25;21.60;;;3.50;99.90;;;;;;4998003;28;20275;-85
2022/01/11 00:08:15;;;;;;;37.15;23.13;;;3.20;99.90;;;;;;4998845;28;20302;-86
2022/01/11 00:10:51;;;;;;;39.97;24.60;;;3.00;99.90;;;;;;5016938;28;20217;-85
2022/01/11 00:13:19;;;;;;;34.50;23.67;;;2.90;99.90;;;;;;5017345;28;20216;-85
2022/01/11 00:15:46;;;;;;;33.97;24.90;;;2.90;99.90;;;;;;5017063;28;20665;-85
2022/01/11 00:18:16;;;;;;;39.97;25.05;;;2.90;99.90;;;;;;5017893;28;20228;-85
2022/01/11 00:20:43;;;;;;;34.30;24.67;;;3.00;99.90;;;;;;5017354;28;20213;-85
2022/01/11 00:26:00;;;;;;;31.85;22.90;;;3.30;99.90;;;;;;5017540;28;20559;-85
2022/01/11 00:28:30;;;;;;;36.83;22.20;;;3.30;99.90;;;;;;4997648;28;20604;-85
2022/01/11 00:30:57;;;;;;;30.17;22.92;;;3.30;99.90;;;;;;4997854;28;20215;-85
2022/01/11 00:33:39;;;;;;;36.22;24.30;;;3.40;99.90;;;;;;5017112;28;20209;-85
2022/01/11 00:36:11;;;;;;;35.60;25.33;;;3.20;99.90;;;;;;5016825;28;20229;-85
2022/01/11 00:38:40;;;;;;;34.22;24.15;;;3.20;99.90;;;;;;5016585;28;20301;-85
2022/01/11 00:41:11;;;;;;;35.42;22.23;;;3.30;99.90;;;;;;5016985;28;20218;-86
2022/01/11 00:43:40;;;;;;;34.40;21.15;;;3.30;99.90;;;;;;5016496;28;20202;-85
2022/01/11 00:46:11;;;;;;;31.00;20.60;;;3.40;99.90;;;;;;5019710;28;20588;-85
2022/01/11 00:48:42;;;;;;;30.33;22.50;;;3.10;99.90;;;;;;5020304;28;20446;-85
2022/01/11 00:51:10;;;;;;;35.08;23.05;;;3.00;99.90;;;;;;5020608;28;20211;-85
2022/01/11 00:53:37;;;;;;;28.23;21.17;;;3.10;99.90;;;;;;5019331;28;20664;-85
2022/01/11 00:56:09;;;;;;;36.53;24.10;;;3.10;99.90;;;;;;5019471;28;20202;-85
2022/01/11 00:58:36;;;;;;;29.88;24.58;;;3.00;99.90;;;;;;5019183;28;20226;-85
2022/01/11 01:01:04;;;;;;;29.05;20.23;;;3.10;99.90;;;;;;5016882;28;20210;-85
2022/01/11 01:03:34;;;;;;;33.97;20.42;;;3.20;99.90;;;;;;5016728;28;20213;-85
2022/01/11 01:06:01;;;;;;;34.88;22.42;;;3.10;99.90;;;;;;5017669;28;20199;-85
2022/01/11 01:08:28;;;;;;;29.27;22.52;;;3.00;99.90;;;;;;5016662;28;20229;-85
2022/01/11 01:10:55;;;;;;;35.00;22.33;;;3.10;99.90;;;;;;5016525;28;20217;-86
2022/01/11 01:13:26;;;;;;;31.85;20.50;;;3.30;99.90;;;;;;5013636;28;20212;-86
2022/01/11 01:15:56;;;;;;;33.50;21.98;;;3.30;99.90;;;;;;5014028;28;20679;-86
2022/01/11 01:18:25;;;;;;;36.53;22.35;;;3.10;99.90;;;;;;5013212;28;20221;-86
2022/01/11 01:20:53;;;;;;;31.10;21.38;;;3.30;99.90;;;;;;5013943;28;20219;-86
2022/01/11 01:23:21;;;;;;;32.03;23.38;;;3.30;99.90;;;;;;5014683;28;20213;-86
2022/01/11 01:25:49;;;;;;;33.33;22.67;;;3.40;99.90;;;;;;5014185;28;20205;-86
2022/01/11 01:28:17;;;;;;;29.20;20.88;;;3.40;99.90;;;;;;5014547;28;20234;-87
2022/01/11 01:30:46;;;;;;;25.92;19.50;;;3.50;99.90;;;;;;5014262;28;20581;-86
2022/01/11 01:33:12;;;;;;;30.50;20.27;;;3.50;99.90;;;;;;5014142;28;20241;-86
2022/01/11 01:35:41;;;;;;;26.88;18.50;;;3.60;99.90;;;;;;5008698;28;20207;-85
2022/01/11 01:38:09;;;;;;;23.10;19.90;;;3.60;99.90;;;;;;5013492;28;20582;-87
2022/01/11 01:40:43;;;;;;;24.15;19.08;;;3.60;99.90;;;;;;5012323;28;20211;-86
2022/01/11 01:43:14;;;;;;;29.00;20.90;;;3.60;99.90;;;;;;4996125;28;20208;-86
2022/01/11 01:45:53;;;;;;;25.13;19.02;;;3.60;99.90;;;;;;5012359;28;20205;-86
2022/01/11 01:48:20;;;;;;;26.55;18.95;;;3.60;99.90;;;;;;5012582;28;20230;-86
2022/01/11 01:50:56;;;;;;;26.75;18.88;;;3.60;99.90;;;;;;5012519;28;20217;-87
2022/01/11 01:53:23;;;;;;;29.05;21.30;;;3.40;99.90;;;;;;5014088;28;20256;-86
2022/01/11 01:55:50;;;;;;;27.58;19.88;;;3.50;99.90;;;;;;5014216;28;20200;-86
2022/01/11 01:58:17;;;;;;;25.30;18.25;;;3.50;99.90;;;;;;5013067;28;20222;-87
2022/01/11 02:00:54;;;;;;;31.40;20.45;;;3.50;99.90;;;;;;5012494;28;20204;-86
2022/01/11 02:03:26;;;;;;;33.05;18.65;;;3.60;99.90;;;;;;5012296;28;20202;-86
2022/01/11 02:05:54;;;;;;;21.95;16.45;;;3.60;99.90;;;;;;5012457;28;20214;-86
2022/01/11 02:08:21;;;;;;;31.17;19.80;;;3.70;99.90;;;;;;5012037;28;20285;-87
2022/01/11 02:10:52;;;;;;;25.58;19.88;;;3.70;99.90;;;;;;5012202;28;20728;-86
2022/01/11 02:13:22;;;;;;;28.70;21.25;;;3.80;99.90;;;;;;5012363;28;20217;-87
2022/01/11 02:15:52;;;;;;;33.75;22.63;;;3.50;99.90;;;;;;5011935;28;20199;-86
2022/01/11 02:18:22;;;;;;;37.15;24.60;;;3.50;99.90;;;;;;5012160;28;20233;-86
2022/01/11 02:21:04;;;;;;;37.53;22.98;;;3.40;99.90;;;;;;5012318;28;20723;-87
2022/01/11 02:23:31;;;;;;;44.40;22.75;;;3.50;99.90;;;;;;5012384;28;20301;-86
2022/01/11 02:25:58;;;;;;;32.13;21.55;;;3.60;99.90;;;;;;5012090;28;20215;-86
2022/01/11 02:28:27;;;;;;;32.92;22.48;;;3.60;99.90;;;;;;5012146;28;20323;-84
2022/01/11 02:30:54;;;;;;;35.05;23.38;;;3.70;99.90;;;;;;5011983;28;20211;-84
2022/01/11 02:33:44;;;;;;;33.80;22.98;;;3.50;99.90;;;;;;5012686;28;20576;-84
2022/01/11 02:36:21;;;;;;;34.78;21.40;;;3.50;99.90;;;;;;5012123;28;20292;-84
2022/01/11 02:38:54;;;;;;;38.78;24.00;;;3.50;99.90;;;;;;4994489;28;20229;-85
2022/01/11 02:41:28;;;;;;;32.35;22.50;;;3.40;99.90;;;;;;5011455;28;20226;-83
2022/01/11 02:43:56;;;;;;;34.60;26.42;;;3.30;99.90;;;;;;5012186;28;20724;-84
2022/01/11 02:46:24;;;;;;;42.65;28.25;;;3.20;99.90;;;;;;5011763;28;20203;-84
2022/01/11 02:48:58;;;;;;;42.80;23.73;;;3.20;99.90;;;;;;5011756;28;20609;-84
2022/01/11 02:51:27;;;;;;;42.30;26.20;;;3.20;99.90;;;;;;5011612;28;20266;-84
2022/01/11 02:53:59;;;;;;;41.95;27.25;;;3.20;99.90;;;;;;5011718;28;20207;-84
2022/01/11 02:56:25;;;;;;;42.58;28.77;;;3.10;99.90;;;;;;5011749;28;20244;-84
2022/01/11 02:58:57;;;;;;;38.97;26.70;;;2.90;99.90;;;;;;5011894;28;20225;-85
2022/01/11 03:01:28;;;;;;;42.42;25.10;;;2.80;99.90;;;;;;5011826;28;20201;-84
2022/01/11 03:03:59;;;;;;;41.05;25.85;;;2.70;99.90;;;;;;5011852;28;20224;-84
2022/01/11 03:06:30;;;;;;;48.58;29.25;;;2.70;99.90;;;;;;5012774;28;20212;-85
2022/01/11 03:08:59;;;;;;;46.13;28.52;;;2.70;99.90;;;;;;5015053;28;20231;-86
2022/01/11 03:11:32;;;;;;;42.67;25.38;;;2.60;99.90;;;;;;5015388;28;20296;-87
2022/01/11 03:14:05;;;;;;;34.17;25.30;;;2.60;99.90;;;;;;5015392;28;20205;-84
2022/01/11 03:16:33;;;;;;;47.35;26.33;;;2.60;99.90;;;;;;5015674;28;20219;-84
2022/01/11 03:19:01;;;;;;;41.83;27.13;;;2.60;99.90;;;;;;5015299;28;20227;-84
2022/01/11 03:21:33;;;;;;;57.40;27.88;;;2.40;99.90;;;;;;5015147;28;20203;-84
2022/01/11 03:24:03;;;;;;;56.47;27.45;;;2.30;99.90;;;;;;5015167;28;20209;-87
2022/01/11 03:26:30;;;;;;;51.65;30.67;;;2.30;99.90;;;;;;5015547;28;20304;-87
2022/01/11 03:28:58;;;;;;;49.65;27.10;;;2.20;99.90;;;;;;5015160;28;20228;-86
2022/01/11 03:31:25;;;;;;;50.22;29.85;;;2.30;99.90;;;;;;5015162;28;20205;-84
2022/01/11 03:33:52;;;;;;;58.40;33.35;;;2.30;99.90;;;;;;5015063;28;20679;-87
2022/01/11 03:36:24;;;;;;;44.78;28.35;;;2.40;99.90;;;;;;5015137;28;20199;-86
2022/01/11 03:38:59;;;;;;;63.63;32.92;;;2.40;99.90;;;;;;5015283;28;20233;-87
2022/01/11 03:41:25;;;;;;;46.90;29.55;;;2.40;99.90;;;;;;5000820;28;20192;-87
2022/01/11 03:43:52;;;;;;;45.22;32.38;;;2.30;99.90;;;;;;5015255;28;20303;-87
2022/01/11 03:46:19;;;;;;;59.53;31.20;;;2.30;99.90;;;;;;5015808;28;20204;-87
2022/01/11 03:48:48;;;;;;;49.72;30.67;;;2.40;99.90;;;;;;5015504;28;20597;-87
2022/01/11 03:51:15;;;;;;;53.10;27.38;;;2.40;99.90;;;;;;5015843;28;20209;-86
2022/01/11 03:53:54;;;;;;;52.88;33.20;;;2.40;99.90;;;;;;5016541;28;20561;-86
2022/01/11 03:56:26;;;;;;;44.72;27.10;;;2.40;99.90;;;;;;5016911;28;20205;-85
2022/01/11 03:58:56;;;;;;;49.70;30.70;;;2.40;99.90;;;;;;5016731;28;20225;-85
2022/01/11 04:01:25;;;;;;;46.20;27.65;;;2.40;99.90;;;;;;5016797;28;20200;-85
2022/01/11 04:03:56;;;;;;;47.60;27.83;;;2.50;99.90;;;;;;5016722;28;20208;-86
2022/01/11 04:06:29;;;;;;;51.58;30.65;;;2.60;99.90;;;;;;5019397;28;20216;-86
2022/01/11 04:08:57;;;;;;;45.38;29.42;;;2.40;99.90;;;;;;5039899;28;20286;-87
2022/01/11 04:11:25;;;;;;;44.10;29.88;;;2.40;99.90;;;;;;5039857;28;20225;-87
2022/01/11 04:13:52;;;;;;;44.33;28.27;;;2.50;99.90;;;;;;5040410;28;20183;-85
2022/01/11 04:16:19;;;;;;;40.75;25.88;;;2.50;99.90;;;;;;5026083;28;20217;-83
2022/01/11 04:18:46;;;;;;;48.10;26.63;;;2.70;99.90;;;;;;5020746;28;20225;-83
2022/01/11 04:21:13;;;;;;;49.75;29.17;;;2.60;99.90;;;;;;5020531;28;20216;-83
2022/01/11 04:23:40;;;;;;;42.70;28.25;;;2.40;99.90;;;;;;5025320;28;20233;-83
2022/01/11 04:26:07;;;;;;;40.88;28.48;;;2.30;99.90;;;;;;5026335;28;20207;-82
2022/01/11 04:28:36;;;;;;;46.83;28.05;;;2.40;99.90;;;;;;5021730;28;20303;-83
2022/01/11 04:31:03;;;;;;;52.78;28.65;;;2.50;99.90;;;;;;5020854;28;20199;-83
2022/01/11 04:33:31;;;;;;;39.50;27.23;;;2.40;99.90;;;;;;5021187;28;20214;-83
2022/01/11 04:35:59;;;;;;;53.75;28.52;;;2.60;99.90;;;;;;5020374;28;20212;-83
2022/01/11 04:38:28;;;;;;;44.58;29.08;;;2.70;99.90;;;;;;5020605;28;20231;-86
2022/01/11 04:40:55;;;;;;;56.90;33.22;;;2.50;99.90;;;;;;5021829;28;20206;-85
2022/01/11 04:43:22;;;;;;;51.50;29.10;;;2.50;99.90;;;;;;5024010;28;20204;-86
2022/01/11 04:45:50;;;;;;;50.60;27.90;;;2.50;99.90;;;;;;5021297;28;20196;-86
2022/01/11 04:48:19;;;;;;;56.55;31.15;;;2.50;99.90;;;;;;5021500;28;20291;-86
2022/01/11 04:50:46;;;;;;;48.33;31.42;;;2.40;99.90;;;;;;5020502;28;20216;-86
2022/01/11 04:53:13;;;;;;;49.17;32.22;;;2.40;99.90;;;;;;5020676;28;20243;-86
2022/01/11 04:55:40;;;;;;;39.60;27.52;;;2.30;99.90;;;;;;5020258;28;20204;-86
2022/01/11 04:58:07;;;;;;;45.03;28.05;;;2.30;99.90;;;;;;5020904;28;20224;-86
2022/01/11 05:00:33;;;;;;;50.17;30.58;;;2.20;99.90;;;;;;5020521;28;20202;-86
2022/01/11 05:03:02;;;;;;;53.80;27.85;;;2.20;99.90;;;;;;5029323;28;20282;-86
2022/01/11 05:05:30;;;;;;;42.95;27.55;;;2.40;99.90;;;;;;5038951;28;20213;-86
2022/01/11 05:07:57;;;;;;;42.95;27.70;;;2.40;99.90;;;;;;5019345;28;20279;-85
2022/01/11 05:10:26;;;;;;;46.05;28.83;;;2.50;99.90;;;;;;5018013;28;20666;-86
2022/01/11 05:12:53;;;;;;;49.70;27.48;;;2.50;99.90;;;;;;5019116;28;20205;-87
2022/01/11 05:15:20;;;;;;;38.90;27.60;;;2.40;99.90;;;;;;5019333;28;20200;-86
2022/01/11 05:17:48;;;;;;;43.55;29.02;;;2.40;99.90;;;;;;5019000;28;20321;-86
2022/01/11 05:20:17;;;;;;;45.25;30.88;;;2.50;99.90;;;;;;5018316;28;20554;-86
2022/01/11 05:22:45;;;;;;;45.17;28.95;;;2.60;99.90;;;;;;5018718;28;20216;-86
2022/01/11 05:25:14;;;;;;;54.88;27.50;;;2.60;99.90;;;;;;5018722;28;20217;-86
2022/01/11 05:27:41;;;;;;;40.55;26.25;;;2.40;99.90;;;;;;5019771;28;20252;-83
2022/01/11 05:30:10;;;;;;;45.58;27.65;;;2.50;99.90;;;;;;5019760;28;20283;-84
2022/01/11 05:32:37;;;;;;;47.08;28.23;;;2.50;99.90;;;;;;5020394;28;20312;-84
2022/01/11 05:35:05;;;;;;;49.72;31.45;;;2.50;99.90;;;;;;5020586;28;20264;-83
2022/01/11 05:37:33;;;;;;;59.72;33.42;;;2.50;99.90;;;;;;5018758;28;20223;-84
2022/01/11 05:40:00;;;;;;;51.15;31.05;;;2.50;99.90;;;;;;5019383;28;20212;-84
2022/01/11 05:42:27;;;;;;;43.25;28.73;;;2.50;99.90;;;;;;5018870;28;20532;-84
2022/01/11 05:44:54;;;;;;;44.33;28.08;;;2.50;99.90;;;;;;5019192;28;20215;-84
2022/01/11 05:47:21;;;;;;;49.58;31.00;;;2.50;99.90;;;;;;5019150;28;20228;-84
2022/01/11 05:49:49;;;;;;;41.65;27.65;;;2.60;99.90;;;;;;5018484;28;20275;-84
2022/01/11 05:52:16;;;;;;;54.63;32.67;;;2.60;99.90;;;;;;5018750;28;20208;-84
2022/01/11 05:54:44;;;;;;;53.60;30.85;;;2.60;99.90;;;;;;5019353;28;20218;-84
2022/01/11 05:57:11;;;;;;;43.67;29.13;;;2.60;99.90;;;;;;5019117;28;20287;-85
2022/01/11 05:59:38;;;;;;;49.80;30.15;;;2.70;99.90;;;;;;5019439;28;20213;-85
2022/01/11 06:02:05;;;;;;;41.72;25.58;;;2.70;99.90;;;;;;5018261;28;20227;-84
2022/01/11 06:04:32;;;;;;;33.65;25.20;;;2.70;99.90;;;;;;5018150;28;20243;-84
2022/01/11 06:06:59;;;;;;;52.25;27.92;;;2.80;99.90;;;;;;5018725;28;20213;-84
2022/01/11 06:09:27;;;;;;;36.03;27.58;;;2.90;99.90;;;;;;5018557;28;20228;-84
2022/01/11 06:11:57;;;;;;;37.78;29.05;;;2.80;99.90;;;;;;5010915;28;20563;-84
2022/01/11 06:14:24;;;;;;;37.55;25.70;;;2.90;99.90;;;;;;5018431;28;20220;-84
2022/01/11 06:16:51;;;;;;;49.85;27.90;;;2.90;99.90;;;;;;5018218;28;20287;-84
2022/01/11 06:19:18;;;;;;;43.03;29.70;;;3.00;99.90;;;;;;5018322;28;20217;-84
2022/01/11 06:21:45;;;;;;;41.17;24.95;;;3.00;99.90;;;;;;5017670;28;20215;-84
2022/01/11 06:24:12;;;;;;;36.35;26.55;;;3.10;99.90;;;;;;5017919;28;20236;-84
2022/01/11 06:26:42;;;;;;;35.53;24.58;;;3.20;99.90;;;;;;5017992;28;20205;-84
2022/01/11 06:29:15;;;;;;;30.17;22.90;;;3.20;99.90;;;;;;5018079;28;20206;-84
2022/01/11 06:31:42;;;;;;;35.55;24.65;;;3.30;99.90;;;;;;5017530;28;20231;-85
2022/01/11 06:34:10;;;;;;;32.63;22.75;;;3.10;99.90;;;;;;5017777;28;20287;-84
2022/01/11 06:36:37;;;;;;;32.63;23.52;;;3.20;99.90;;;;;;5015005;28;20577;-84
2022/01/11 06:39:04;;;;;;;39.15;25.55;;;3.30;99.90;;;;;;5014779;28;20227;-85
2022/01/11 06:41:36;;;;;;;35.67;21.70;;;3.40;99.90;;;;;;5016166;28;20200;-85
2022/01/11 06:44:06;;;;;;;34.95;23.38;;;3.20;99.90;;;;;;5019583;28;20211;-84
2022/01/11 06:46:35;;;;;;;30.55;22.95;;;3.30;99.90;;;;;;5019530;28;20217;-84
2022/01/11 06:49:01;;;;;;;35.15;19.92;;;3.30;99.90;;;;;;5018109;28;20230;-84
2022/01/11 06:51:28;;;;;;;34.80;22.90;;;3.20;99.90;;;;;;5018061;28;20238;-84
2022/01/11 06:53:55;;;;;;;26.45;20.05;;;3.30;99.90;;;;;;5018636;28;20576;-84
2022/01/11 06:56:22;;;;;;;33.53;20.95;;;3.30;99.90;;;;;;5018119;28;20205;-84
2022/01/11 06:58:49;;;;;;;33.15;19.83;;;3.10;99.90;;;;;;5017923;28;20225;-85
2022/01/11 07:01:21;;;;;;;26.35;18.35;;;3.30;99.90;;;;;;5014211;28;20209;-84
2022/01/11 07:03:50;;;;;;;28.58;17.83;;;3.30;99.90;;;;;;5018304;28;20206;-84
2022/01/11 07:06:17;;;;;;;30.35;20.58;;;3.40;99.90;;;;;;5018400;28;20219;-84
2022/01/11 07:08:44;;;;;;;29.38;18.42;;;3.20;99.90;;;;;;5018790;28;20250;-84
2022/01/11 07:11:22;;;;;;;28.88;18.75;;;3.30;99.90;;;;;;5019398;28;20215;-85
2022/01/11 07:13:48;;;;;;;29.23;20.45;;;3.30;99.90;;;;;;5019154;28;20203;-84
2022/01/11 07:16:15;;;;;;;29.52;19.95;;;3.40;99.90;;;;;;5019132;28;20677;-85
2022/01/11 07:18:44;;;;;;;31.65;18.88;;;3.40;99.90;;;;;;5016546;28;20222;-85
2022/01/11 07:21:12;;;;;;;24.85;18.02;;;3.50;99.90;;;;;;5020347;28;20689;-86
2022/01/11 07:23:49;;;;;;;31.05;20.55;;;3.60;99.90;;;;;;5018656;28;20211;-85
2022/01/11 07:26:15;;;;;;;23.00;16.98;;;3.40;99.90;;;;;;5016557;28;20205;-85
2022/01/11 07:28:43;;;;;;;31.15;20.30;;;3.40;99.90;;;;;;5017271;28;20220;-84
2022/01/11 07:31:09;;;;;;;28.10;19.60;;;3.50;99.90;;;;;;5020357;28;20228;-86
2022/01/11 07:33:36;;;;;;;22.33;18.45;;;3.60;99.90;;;;;;5022470;28;20199;-86
2022/01/11 07:36:03;;;;;;;27.48;17.00;;;3.70;99.90;;;;;;5025729;28;20205;-86
2022/01/11 07:38:32;;;;;;;23.60;18.42;;;3.70;99.90;;;;;;5018762;28;20225;-86
2022/01/11 07:40:58;;;;;;;28.00;17.42;;;3.70;99.90;;;;;;5023353;28;20312;-86
2022/01/11 07:43:25;;;;;;;25.90;17.83;;;3.70;99.90;;;;;;5033750;28;20212;-86
2022/01/11 07:45:52;;;;;;;29.85;19.90;;;3.80;99.90;;;;;;5022138;28;20205;-86
2022/01/11 07:48:19;;;;;;;23.40;17.55;;;3.80;99.90;;;;;;5025408;28;20325;-86
2022/01/11 07:50:45;;;;;;;27.45;17.88;;;3.80;99.90;;;;;;5016991;28;20217;-86
2022/01/11 07:53:12;;;;;;;22.92;16.38;;;3.80;99.90;;;;;;5016917;28;20571;-86
2022/01/11 07:55:41;;;;;;;25.85;17.05;;;3.90;99.90;;;;;;5029926;28;20288;-82
2022/01/11 07:58:07;;;;;;;16.77;15.02;;;4.00;99.90;;;;;;5031673;28;20229;-83
2022/01/11 08:00:34;;;;;;;24.33;16.58;;;4.10;99.90;;;;;;5015934;28;20454;-83
2022/01/11 08:03:01;;;;;;;21.25;17.27;;;4.10;99.90;;;;;;5015957;28;20589;-83
2022/01/11 08:05:28;;;;;;;23.90;14.40;;;4.10;99.90;;;;;;5018836;28;20206;-82
2022/01/11 08:07:55;;;;;;;23.90;15.50;;;4.10;99.90;;;;;;5019967;28;20218;-81
2022/01/11 08:10:22;;;;;;;18.75;14.77;;;4.20;99.90;;;;;;5020345;28;20734;-81
2022/01/11 08:12:50;;;;;;;23.67;16.85;;;4.20;99.90;;;;;;5019952;28;20222;-82
2022/01/11 08:15:16;;;;;;;23.85;15.43;;;4.30;99.90;;;;;;5020803;28;20712;-82
2022/01/11 08:17:43;;;;;;;24.05;16.73;;;4.40;99.90;;;;;;5020245;28;20230;-81
2022/01/11 08:20:10;;;;;;;19.65;16.40;;;4.40;99.90;;;;;;5019886;28;20218;-82
2022/01/11 08:22:37;;;;;;;21.23;15.95;;;4.30;99.90;;;;;;5018809;28;20214;-82
2022/01/11 08:25:05;;;;;;;18.83;15.30;;;4.40;99.90;;;;;;5019409;28;20210;-82
2022/01/11 08:27:33;;;;;;;19.83;15.70;;;4.40;99.90;;;;;;5018587;28;20226;-83
2022/01/11 08:30:01;;;;;;;24.52;18.50;;;4.50;99.90;;;;;;5017136;28;20253;-81
2022/01/11 08:32:28;;;;;;;21.17;17.13;;;4.50;99.90;;;;;;5017175;28;20577;-83
2022/01/11 08:34:55;;;;;;;20.45;16.30;;;4.60;99.90;;;;;;5016702;28;20207;-80
2022/01/11 08:37:22;;;;;;;19.13;14.10;;;4.60;99.90;;;;;;5017945;28;20598;-82
2022/01/11 08:39:49;;;;;;;17.08;13.85;;;4.70;99.90;;;;;;5019062;28;20205;-81
2022/01/11 08:42:16;;;;;;;18.45;15.43;;;4.70;99.90;;;;;;5018636;28;20214;-82
2022/01/11 08:44:45;;;;;;;22.13;16.88;;;4.60;99.90;;;;;;5019326;28;20206;-81
2022/01/11 08:47:14;;;;;;;23.70;15.57;;;4.70;99.90;;;;;;5018647;28;20223;-81
2022/01/11 08:49:41;;;;;;;21.38;14.52;;;4.50;99.90;;;;;;5019006;28;20201;-81
2022/01/11 08:52:08;;;;;;;21.83;16.98;;;4.30;99.90;;;;;;5017928;28;20234;-80
2022/01/11 08:54:35;;;;;;;19.40;14.50;;;4.30;99.90;;;;;;5018921;28;20218;-81
2022/01/11 08:57:02;;;;;;;25.67;16.83;;;4.30;99.90;;;;;;5019933;28;20227;-82
2022/01/11 08:59:29;;;;;;;25.50;16.13;;;4.30;99.90;;;;;;5020783;28;20206;-82
2022/01/11 09:01:58;;;;;;;21.27;15.27;;;4.30;99.90;;;;;;5019222;28;20305;-82
2022/01/11 09:04:27;;;;;;;24.63;15.30;;;4.20;99.90;;;;;;5018552;28;20223;-80
2022/01/11 09:06:57;;;;;;;24.65;15.07;;;4.10;99.90;;;;;;5017483;28;20257;-83
2022/01/11 09:09:25;;;;;;;21.60;18.15;;;4.10;99.90;;;;;;5018044;28;20218;-80
2022/01/11 09:11:52;;;;;;;36.00;20.63;;;4.00;99.90;;;;;;5018042;28;20712;-81
2022/01/11 09:14:19;;;;;;;26.65;19.38;;;3.80;99.90;;;;;;5018031;28;20261;-82
2022/01/11 09:16:46;;;;;;;23.80;19.38;;;3.70;99.90;;;;;;5018225;28;20222;-80
2022/01/11 09:19:14;;;;;;;29.13;20.17;;;4.00;99.90;;;;;;5018886;28;20586;-81
2022/01/11 09:21:42;;;;;;;24.33;19.80;;;3.90;99.90;;;;;;5018027;28;20218;-81
2022/01/11 09:24:10;;;;;;;29.60;22.55;;;4.20;99.90;;;;;;4999100;28;20216;-80
2022/01/11 09:26:38;;;;;;;25.77;20.50;;;4.40;99.90;;;;;;5007415;28;20746;-81
2022/01/11 09:29:04;;;;;;;24.75;18.52;;;4.60;99.90;;;;;;5018668;28;20285;-81
2022/01/11 09:31:31;;;;;;;22.35;17.00;;;4.70;99.90;;;;;;5018060;28;20223;-82
2022/01/11 09:33:59;;;;;;;24.40;18.27;;;4.70;99.90;;;;;;5033970;28;20207;-81
2022/01/11 09:36:26;;;;;;;23.42;16.77;;;4.50;99.90;;;;;;5037068;28;20226;-82
2022/01/11 09:38:55;;;;;;;26.20;16.30;;;4.60;99.90;;;;;;5032266;28;20223;-82
2022/01/11 09:41:21;;;;;;;19.30;14.80;;;4.80;99.90;;;;;;5017358;28;20196;-81
2022/01/11 09:43:48;;;;;;;18.48;13.10;;;4.70;99.90;;;;;;5015872;28;20211;-81
2022/01/11 09:46:16;;;;;;;16.77;13.43;;;4.80;99.90;;;;;;5017280;28;20213;-81
2022/01/11 09:48:43;;;;;;;17.90;13.13;;;5.10;99.90;;;;;;5016813;28;20225;-82
2022/01/11 09:51:10;;;;;;;12.52;10.80;;;5.20;99.90;;;;;;5017126;28;20317;-81
2022/01/11 09:53:36;;;;;;;12.32;10.52;;;5.30;99.90;;;;;;5016392;28;20199;-81
2022/01/11 09:56:06;;;;;;;11.45;9.60;;;5.40;99.90;;;;;;5017109;28;20207;-81
2022/01/11 09:58:34;;;;;;;13.30;9.70;;;5.50;99.90;;;;;;5013938;28;20733;-81
2022/01/11 10:01:02;;;;;;;12.82;9.75;;;5.50;99.90;;;;;;5014333;28;20203;-81
2022/01/11 10:03:28;;;;;;;12.13;10.88;;;5.60;99.90;;;;;;5014796;28;20211;-81
2022/01/11 10:05:56;;;;;;;13.43;10.48;;;5.60;99.90;;;;;;5013823;28;20222;-81
2022/01/11 10:08:25;;;;;;;14.82;9.50;;;5.60;99.90;;;;;;5021040;28;20244;-81
2022/01/11 10:10:53;;;;;;;12.43;9.13;;;5.50;99.90;;;;;;5016273;28;20317;-82
2022/01/11 10:13:32;;;;;;;14.38;11.60;;;5.70;99.90;;;;;;5016832;28;20265;-82
2022/01/11 10:16:18;;;;;;;11.35;10.13;;;5.80;99.90;;;;;;5016245;28;20198;-82
2022/01/11 10:18:45;;;;;;;15.20;10.73;;;6.00;99.90;;;;;;5016348;28;20276;-83
2022/01/11 10:21:31;;;;;;;11.77;10.38;;;6.00;99.90;;;;;;5017093;28;20207;-83
2022/01/11 10:23:58;;;;;;;14.15;11.43;;;6.10;99.90;;;;;;4997566;28;20877;-82
2022/01/11 10:26:43;;;;;;;12.70;11.50;;;6.00;99.90;;;;;;4997194;28;20207;-80
2022/01/11 10:29:37;;;;;;;16.38;11.27;;;6.20;99.90;;;;;;5013150;28;20210;-84
2022/01/11 10:32:13;;;;;;;17.08;12.15;;;6.30;99.90;;;;;;5026979;28;20222;-82
2022/01/11 10:35:01;;;;;;;16.27;10.93;;;6.30;99.90;;;;;;5023602;28;20278;-84
2022/01/11 10:37:31;;;;;;;11.23;9.45;;;6.40;99.90;;;;;;5028355;28;20250;-81
2022/01/11 10:40:06;;;;;;;16.65;10.07;;;6.50;99.90;;;;;;5028939;28;20231;-82
2022/01/11 10:42:38;;;;;;;13.13;9.55;;;6.50;99.90;;;;;;5029824;28;20198;-82
2022/01/11 10:45:08;;;;;;;14.23;9.85;;;6.50;99.90;;;;;;5027290;28;20687;-82
2022/01/11 10:47:46;;;;;;;17.10;10.80;;;6.60;99.90;;;;;;5088220;23;20225;-81
2022/01/11 10:50:19;;;;;;;10.13;9.15;;;6.60;99.90;;;;;;5066770;28;20209;-81
2022/01/11 10:52:46;;;;;;;9.40;7.78;;;6.50;99.90;;;;;;5065575;28;20190;-82
2022/01/11 10:55:16;;;;;;;14.10;11.02;;;6.60;99.90;;;;;;5056585;28;20210;-83
2022/01/11 10:57:44;;;;;;;13.27;10.27;;;6.70;99.90;;;;;;5048014;28;20218;-83
2022/01/11 11:00:20;;;;;;;10.63;9.00;;;6.90;99.90;;;;;;5036557;28;20725;-82
2022/01/11 11:02:51;;;;;;;9.63;7.80;;;7.10;99.90;;;;;;5037195;28;20594;-83
2022/01/11 11:05:23;;;;;;;8.77;7.78;;;7.20;99.90;;;;;;5037712;28;20206;-83
2022/01/11 11:07:56;;;;;;;16.20;9.30;;;7.10;99.90;;;;;;5039366;28;20715;-83
2022/01/11 11:10:49;;;;;;;10.60;8.27;;;7.00;99.90;;;;;;5036652;28;20217;-83
2022/01/11 11:13:24;;;;;;;9.85;8.25;;;7.10;99.90;;;;;;5021852;28;20206;-82
2022/01/11 11:15:53;;;;;;;8.52;7.40;;;7.00;99.90;;;;;;5034039;28;20350;-83
2022/01/11 11:18:31;;;;;;;8.80;7.93;;;7.10;99.90;;;;;;5035487;28;20222;-82
2022/01/11 11:21:13;;;;;;;10.88;7.93;;;7.20;99.90;;;;;;5035225;28;20206;-81
2022/01/11 11:23:40;;;;;;;7.82;7.13;;;7.10;99.90;;;;;;5034558;28;20210;-83
2022/01/11 11:26:07;;;;;;;8.27;7.15;;;7.20;99.90;;;;;;5034215;28;20203;-83
2022/01/11 11:28:34;;;;;;;8.80;7.85;;;7.30;99.90;;;;;;5038930;28;20294;-82
2022/01/11 11:31:03;;;;;;;8.07;7.03;;;7.50;99.90;;;;;;5042441;28;20210;-81
2022/01/11 11:33:31;;;;;;;11.40;10.30;;;7.50;99.90;;;;;;5060984;28;20182;-82
2022/01/11 11:35:58;;;;;;;10.02;7.80;;;7.60;99.90;;;;;;5060125;28;20321;-83
2022/01/11 11:38:30;;;;;;;9.80;8.10;;;7.50;99.90;;;;;;5047073;28;20313;-82
2022/01/11 11:40:58;;;;;;;9.07;7.82;;;7.10;99.90;;;;;;5041143;28;20213;-83
2022/01/11 11:43:25;;;;;;;8.45;7.32;;;7.10;99.90;;;;;;5049522;28;20253;-82
2022/01/11 11:45:52;;;;;;;9.27;8.20;;;7.20;99.90;;;;;;5047313;28;20213;-82
2022/01/11 11:48:24;;;;;;;7.60;5.18;;;7.30;99.90;;;;;;5048148;28;20234;-82
2022/01/11 11:50:55;;;;;;;10.02;5.85;;;7.40;99.90;;;;;;5047313;28;20843;-82
2022/01/11 11:53:26;;;;;;;6.28;5.65;;;7.50;99.90;;;;;;5048089;28;20198;-82
2022/01/11 11:56:17;;;;;;;6.13;5.43;;;7.40;99.90;;;;;;5047690;28;20194;-84
2022/01/11 12:01:42;;;;;;;7.20;6.50;;;7.20;99.40;;;;;;5043792;28;20288;-81
2022/01/11 12:04:53;;;;;;;6.90;5.63;;;7.10;99.90;;;;;;5048831;28;20229;-83
2022/01/11 12:11:08;;;;;;;5.47;4.20;;;7.10;99.50;;;;;;4856213;29;20275;-81
2022/01/11 12:13:52;;;;;;;4.10;3.67;;;7.20;99.90;;;;;;4860026;29;20208;-83
2022/01/11 12:16:46;;;;;;;3.90;3.53;;;7.20;99.60;;;;;;4891767;29;20239;-83
2022/01/11 12:19:52;;;;;;;4.68;4.28;;;7.20;99.40;;;;;;4925075;29;20242;-84
2022/01/11 12:26:14;;;;;;;5.05;3.05;;;7.40;98.00;;;;;;4857369;29;20240;-84
2022/01/11 12:29:27;;;;;;;3.28;2.85;;;7.60;98.20;;;;;;4954715;28;20231;-81
2022/01/11 12:42:03;;;;;;;3.40;3.10;;;9.10;94.10;;;;;;4868620;29;20659;-81
2022/01/11 12:45:35;;;;;;;3.97;3.60;;;8.80;94.20;;;;;;4904878;29;20210;-81
2022/01/11 12:47:41;;;;;;;5.53;3.92;;;8.70;94.00;;;;;;4973200;28;20266;-81
2022/01/11 12:50:12;;;;;;;5.50;4.93;;;8.50;94.70;;;;;;5025780;28;20215;-81
2022/01/11 12:55:30;;;;;;;4.18;3.40;;;8.10;94.70;;;;;;5018140;28;20218;-81
2022/01/11 12:57:57;;;;;;;7.35;4.18;;;8.00;95.20;;;;;;5036460;23;20302;-81
2022/01/11 13:00:26;;;;;;;5.25;3.85;;;7.80;95.10;;;;;;5024725;28;20214;-82
2022/01/11 13:02:55;;;;;;;4.10;3.70;;;7.70;95.80;;;;;;5025242;28;20227;-81
2022/01/11 13:05:23;;;;;;;4.18;3.78;;;7.60;95.80;;;;;;5025397;28;20203;-82
2022/01/11 13:07:54;;;;;;;5.00;3.80;;;7.50;95.70;;;;;;5024539;28;20231;-82
2022/01/11 13:10:22;;;;;;;3.63;3.28;;;7.50;95.80;;;;;;5026394;28;20203;-83
2022/01/11 13:12:53;;;;;;;2.90;2.58;;;7.40;95.70;;;;;;5023728;28;20211;-82
2022/01/11 13:15:25;;;;;;;3.70;3.40;;;7.00;95.00;;;;;;5025792;28;20203;-83
2022/01/11 13:18:08;;;;;;;3.60;3.20;;;7.00;96.20;;;;;;5027409;28;20227;-83
2022/01/11 13:20:36;;;;;;;4.95;4.03;;;7.10;95.80;;;;;;5025908;28;20202;-82